createdAt,value
2019-03-06T00:00:59.730Z,98174.78
2019-03-06T00:03:29.846Z,98173.20
2019-03-06T00:05:58.159Z,98178.59
2019-03-06T00:08:26.219Z,98184.50
2019-03-06T00:10:54.025Z,98176.84
2019-03-06T00:13:22.110Z,98179.47
2019-03-06T00:15:50.261Z,98172.27
2019-03-06T00:18:18.539Z,98168.27
2019-03-06T00:20:47.654Z,98169.59
2019-03-06T00:23:15.558Z,98171.70
2019-03-06T00:25:43.584Z,98167.45
2019-03-06T00:28:12.268Z,98168.27
2019-03-06T00:30:40.623Z,98168.83
2019-03-06T00:33:08.905Z,98163.23
2019-03-06T00:35:42.844Z,98157.09
2019-03-06T00:38:11.068Z,98154.98
2019-03-06T00:41:15.636Z,98158.70
2019-03-06T00:43:44.501Z,98152.59
2019-03-06T00:46:13.712Z,98157.16
2019-03-06T00:48:42.809Z,98151.85
2019-03-06T00:51:15.845Z,98160.39
2019-03-06T00:53:44.421Z,98168.97
2019-03-06T00:56:12.841Z,98166.55
2019-03-06T00:58:41.853Z,98162.26
2019-03-06T01:01:11.994Z,98154.53
2019-03-06T01:03:41.228Z,98145.98
2019-03-06T01:06:09.286Z,98151.61
2019-03-06T01:08:39.421Z,98151.38
2019-03-06T01:11:09.971Z,98142.02
2019-03-06T01:13:39.710Z,98139.63
2019-03-06T01:16:08.978Z,98123.64
2019-03-06T01:18:39.003Z,98122.83
2019-03-06T01:21:08.996Z,98122.88
2019-03-06T01:23:38.582Z,98124.98
2019-03-06T01:26:06.863Z,98122.88
2019-03-06T01:28:35.857Z,98115.95
2019-03-06T01:31:04.068Z,98116.20
2019-03-06T01:33:40.284Z,98119.14
2019-03-06T01:36:17.592Z,98111.91
2019-03-06T01:39:02.760Z,98107.66
2019-03-06T01:41:42.813Z,98113.35
2019-03-06T01:44:17.645Z,98109.34
2019-03-06T01:46:45.353Z,98117.89
2019-03-06T01:49:13.382Z,98113.39
2019-03-06T01:51:41.348Z,98101.09
2019-03-06T01:54:10.435Z,98087.78
2019-03-06T01:56:38.238Z,98091.78
2019-03-06T01:59:06.310Z,98091.23
2019-03-06T02:01:34.010Z,98088.84
2019-03-06T02:04:02.450Z,98078.44
2019-03-06T02:06:30.967Z,98076.82
2019-03-06T02:08:58.633Z,98070.15
2019-03-06T02:11:26.204Z,98065.33
2019-03-06T02:13:55.003Z,98065.09
2019-03-06T02:16:22.595Z,98066.70
2019-03-06T02:18:50.671Z,98064.31
2019-03-06T02:21:19.449Z,98054.69
2019-03-06T02:23:47.984Z,98048.31
2019-03-06T02:26:16.081Z,98047.53
2019-03-06T02:28:44.782Z,98061.12
2019-03-06T02:31:12.608Z,98057.94
2019-03-06T02:33:41.639Z,98048.11
2019-03-06T02:36:10.486Z,98039.28
2019-03-06T02:38:38.574Z,98036.65
2019-03-06T02:41:07.243Z,98031.84
2019-03-06T02:43:36.398Z,98031.34
2019-03-06T02:46:05.052Z,98020.39
2019-03-06T02:48:34.150Z,98010.20
2019-03-06T02:51:02.160Z,98010.52
2019-03-06T02:53:30.200Z,98013.48
2019-03-06T02:55:57.894Z,98013.52
2019-03-06T02:58:48.774Z,98012.70
2019-03-06T03:01:32.802Z,98013.23
2019-03-06T03:04:27.950Z,98010.84
2019-03-06T03:07:00.415Z,98006.11
2019-03-06T03:09:28.791Z,98006.07
2019-03-06T03:11:57.159Z,98006.56
2019-03-06T03:14:24.908Z,98016.51
2019-03-06T03:16:52.917Z,98012.01
2019-03-06T03:19:21.182Z,98010.95
2019-03-06T03:21:49.263Z,98002.67
2019-03-06T03:24:19.176Z,97996.56
2019-03-06T03:26:47.564Z,97994.22
2019-03-06T03:29:15.805Z,97989.69
2019-03-06T03:31:43.658Z,97986.77
2019-03-06T03:34:12.823Z,97986.25
2019-03-06T03:36:41.786Z,97981.93
2019-03-06T03:39:09.708Z,97982.77
2019-03-06T03:41:37.442Z,97981.72
2019-03-06T03:44:06.233Z,97979.58
2019-03-06T03:46:33.912Z,97987.05
2019-03-06T03:49:03.644Z,97988.39
2019-03-06T03:51:32.752Z,97984.67
2019-03-06T03:54:01.024Z,97977.23
2019-03-06T03:56:30.016Z,97986.05
2019-03-06T03:58:58.880Z,97990.89
2019-03-06T04:01:27.283Z,97988.95
2019-03-06T04:03:55.441Z,97982.36
2019-03-06T04:06:24.598Z,97988.50
2019-03-06T04:08:53.119Z,97985.31
2019-03-06T04:11:23.041Z,97991.69
2019-03-06T04:17:35.912Z,97988.33
2019-03-06T04:20:04.424Z,97985.66
2019-03-06T04:22:32.446Z,97984.33
2019-03-06T04:25:01.321Z,97987.55
2019-03-06T04:27:30.514Z,97987.31
2019-03-06T04:29:59.149Z,97990.25
2019-03-06T04:32:26.855Z,97986.53
2019-03-06T04:34:54.575Z,97981.48
2019-03-06T04:37:22.251Z,97987.84
2019-03-06T04:39:50.354Z,97992.42
2019-03-06T04:42:18.171Z,97985.76
2019-03-06T04:44:46.288Z,97988.15
2019-03-06T04:47:14.459Z,97991.09
2019-03-06T04:49:52.195Z,97988.67
2019-03-06T04:52:13.316Z,97996.67
2019-03-06T04:54:42.106Z,97991.38
2019-03-06T04:57:11.114Z,97985.48
2019-03-06T04:59:40.970Z,97984.46
2019-03-06T05:02:08.911Z,97982.60
2019-03-06T05:04:37.503Z,97970.11
2019-03-06T05:07:05.909Z,97958.87
2019-03-06T05:09:34.373Z,97959.44
2019-03-06T05:12:02.233Z,97958.39
2019-03-06T05:14:30.113Z,97956.22
2019-03-06T05:17:14.493Z,97949.83
2019-03-06T05:19:42.730Z,97945.55
2019-03-06T05:22:11.364Z,97937.06
2019-03-06T05:24:40.601Z,97933.83
2019-03-06T05:27:08.183Z,97924.50
2019-03-06T05:29:36.047Z,97931.73
2019-03-06T05:32:29.266Z,97941.30
2019-03-06T05:35:01.872Z,97930.11
2019-03-06T05:38:11.241Z,97927.52
2019-03-06T05:40:39.995Z,97918.50
2019-03-06T05:43:07.667Z,97915.55
2019-03-06T05:45:36.415Z,97917.91
2019-03-06T05:48:04.996Z,97920.30
2019-03-06T05:50:33.024Z,97909.91
2019-03-06T05:53:03.413Z,97901.10
2019-03-06T05:55:31.204Z,97893.42
2019-03-06T05:58:00.448Z,97891.56
2019-03-06T06:00:29.411Z,97886.69
2019-03-06T06:02:58.486Z,97887.45
2019-03-06T06:05:26.470Z,97889.87
2019-03-06T06:07:54.327Z,97893.66
2019-03-06T06:10:55.295Z,97896.41
2019-03-06T06:13:31.480Z,97894.27
2019-03-06T06:15:59.138Z,97898.41
2019-03-06T06:18:27.895Z,97901.88
2019-03-06T06:21:15.737Z,97898.40
2019-03-06T06:23:47.726Z,97893.59
2019-03-06T06:26:15.698Z,97889.35
2019-03-06T06:28:45.085Z,97884.58
2019-03-06T06:31:19.441Z,97884.30
2019-03-06T06:33:47.028Z,97870.97
2019-03-06T06:36:17.167Z,97859.98
2019-03-06T06:38:46.676Z,97862.41
2019-03-06T06:41:15.192Z,97860.51
2019-03-06T06:43:48.050Z,97869.56
2019-03-06T06:46:16.565Z,97861.55
2019-03-06T06:48:45.375Z,97862.08
2019-03-06T06:52:10.494Z,97860.70
2019-03-06T06:55:38.623Z,97859.45
2019-03-06T06:58:57.170Z,97845.27
2019-03-06T07:02:32.805Z,97842.84
2019-03-06T07:05:51.334Z,97837.80
2019-03-06T07:08:41.918Z,97839.81
2019-03-06T07:11:44.517Z,97837.75
2019-03-06T07:14:28.135Z,97832.62
2019-03-06T07:17:03.079Z,97839.25
2019-03-06T07:19:35.832Z,97824.85
2019-03-06T07:22:26.751Z,97822.67
2019-03-06T07:25:06.361Z,97832.20
2019-03-06T07:27:53.880Z,97830.06
2019-03-06T07:30:56.614Z,97826.02
2019-03-06T07:33:36.554Z,97822.92
2019-03-06T07:36:30.681Z,97822.34
2019-03-06T07:39:15.477Z,97825.45
2019-03-06T07:42:12.211Z,97822.20
2019-03-06T07:45:02.920Z,97817.81
2019-03-06T07:47:48.565Z,97810.77
2019-03-06T07:50:27.074Z,97816.34
2019-03-06T07:54:18.909Z,97807.45
2019-03-06T07:56:51.324Z,97801.58
2019-03-06T07:59:22.360Z,97801.71
2019-03-06T08:02:05.010Z,97806.70
2019-03-06T08:04:32.832Z,97798.52
2019-03-06T08:07:07.047Z,97801.59
2019-03-06T08:09:36.465Z,97816.88
2019-03-06T08:12:30.036Z,97802.71
2019-03-06T08:15:17.634Z,97804.16
2019-03-06T08:18:02.414Z,97796.39
2019-03-06T08:20:43.172Z,97801.44
2019-03-06T08:23:27.955Z,97794.22
2019-03-06T08:25:58.483Z,97792.65
2019-03-06T08:28:28.192Z,97806.47
2019-03-06T08:31:32.646Z,97794.23
2019-03-06T08:34:00.742Z,97789.39
2019-03-06T08:36:29.670Z,97782.50
2019-03-06T08:38:59.340Z,97789.98
2019-03-06T08:41:27.308Z,97790.57
2019-03-06T08:43:55.764Z,97785.67
2019-03-06T08:46:45.143Z,97780.52
2019-03-06T08:49:41.005Z,97783.54
2019-03-06T08:52:29.979Z,97781.11
2019-03-06T08:55:27.634Z,97775.87
2019-03-06T08:58:34.106Z,97771.52
2019-03-06T09:01:39.311Z,97767.90
2019-03-06T09:04:45.034Z,97767.25
2019-03-06T09:07:32.499Z,97755.67
2019-03-06T09:10:23.007Z,97749.48
2019-03-06T09:13:10.255Z,97752.91
2019-03-06T09:16:04.031Z,97749.61
2019-03-06T09:18:50.925Z,97746.34
2019-03-06T09:21:40.876Z,97730.20
2019-03-06T09:24:32.007Z,97727.53
2019-03-06T09:27:23.168Z,97737.37
2019-03-06T09:30:17.156Z,97734.66
2019-03-06T09:33:11.286Z,97729.02
2019-03-06T09:36:11.316Z,97717.95
2019-03-06T09:38:49.597Z,97705.63
2019-03-06T09:41:38.171Z,97698.04
2019-03-06T09:44:24.477Z,97685.94
2019-03-06T09:47:19.859Z,97681.63
2019-03-06T09:50:16.633Z,97670.92
2019-03-06T09:53:00.632Z,97670.56
2019-03-06T09:55:51.422Z,97657.38
2019-03-06T09:58:25.802Z,97657.58
2019-03-06T10:01:19.229Z,97642.27
2019-03-06T10:04:04.173Z,97646.50
2019-03-06T10:06:54.246Z,97650.28
2019-03-06T10:09:30.030Z,97649.81
2019-03-06T10:12:22.905Z,97636.91
2019-03-06T10:15:11.328Z,97640.39
2019-03-06T10:17:43.859Z,97628.88
2019-03-06T10:20:24.634Z,97631.79
2019-03-06T10:22:45.119Z,97613.33
2019-03-06T10:25:13.133Z,97619.14
2019-03-06T10:27:41.625Z,97608.28
2019-03-06T10:30:13.005Z,97611.42
2019-03-06T10:32:41.312Z,97598.23
2019-03-06T10:35:10.469Z,97596.29
2019-03-06T10:37:38.442Z,97600.80
2019-03-06T10:40:09.428Z,97597.48
2019-03-06T10:42:37.348Z,97585.09
2019-03-06T10:45:05.617Z,97579.17
2019-03-06T10:47:33.929Z,97578.80
2019-03-06T10:50:01.589Z,97579.30
2019-03-06T10:52:30.386Z,97574.74
2019-03-06T10:55:00.349Z,97565.53
2019-03-06T10:57:29.500Z,97560.75
2019-03-06T10:59:57.565Z,97557.27
2019-03-06T11:02:25.735Z,97552.72
2019-03-06T11:05:00.636Z,97562.09
2019-03-06T11:07:28.796Z,97557.58
2019-03-06T11:09:56.567Z,97558.91
2019-03-06T11:12:24.326Z,97552.72
2019-03-06T11:14:52.356Z,97551.61
2019-03-06T11:17:20.500Z,97541.14
2019-03-06T11:19:48.878Z,97542.23
2019-03-06T11:22:16.636Z,97539.33
2019-03-06T11:24:44.307Z,97528.67
2019-03-06T11:27:12.117Z,97524.96
2019-03-06T11:29:40.961Z,97519.14
2019-03-06T11:32:09.328Z,97518.66
2019-03-06T11:34:37.004Z,97515.20
2019-03-06T11:37:05.242Z,97507.48
2019-03-06T11:39:33.233Z,97500.22
2019-03-06T11:42:01.360Z,97494.56
2019-03-06T11:44:29.349Z,97484.13
2019-03-06T11:46:57.698Z,97483.97
2019-03-06T11:49:25.412Z,97478.00
2019-03-06T11:51:54.819Z,97469.35
2019-03-06T11:54:23.529Z,97467.86
2019-03-06T11:56:52.537Z,97455.68
2019-03-06T11:59:21.296Z,97455.29
2019-03-06T12:01:49.259Z,97451.50
2019-03-06T12:04:17.392Z,97454.44
2019-03-06T12:06:45.288Z,97457.35
2019-03-06T12:09:28.840Z,97448.52
2019-03-06T12:11:57.584Z,97434.05
2019-03-06T12:14:25.865Z,97434.36
2019-03-06T12:16:54.565Z,97421.74
2019-03-06T12:19:22.383Z,97418.75
2019-03-06T12:21:50.671Z,97408.53
2019-03-06T12:24:19.122Z,97399.88
2019-03-06T12:26:47.222Z,97397.42
2019-03-06T12:29:15.270Z,97391.84
2019-03-06T12:31:43.109Z,97384.03
2019-03-06T12:34:11.409Z,97378.14
2019-03-06T12:36:39.605Z,97372.47
2019-03-06T12:39:07.646Z,97365.38
2019-03-06T12:41:35.882Z,97365.81
2019-03-06T12:44:10.454Z,97361.22
2019-03-06T12:46:35.339Z,97358.80
2019-03-06T12:49:07.049Z,97355.32
2019-03-06T12:51:36.599Z,97351.30
2019-03-06T12:54:06.535Z,97354.70
2019-03-06T12:56:34.686Z,97348.54
2019-03-06T12:59:02.544Z,97333.81
2019-03-06T13:01:31.664Z,97329.73
2019-03-06T13:03:59.678Z,97322.02
2019-03-06T13:06:28.033Z,97325.55
2019-03-06T13:08:56.588Z,97314.83
2019-03-06T13:11:24.599Z,97308.36
2019-03-06T13:13:52.308Z,97309.48
2019-03-06T13:16:20.246Z,97297.20
2019-03-06T13:18:48.178Z,97291.98
2019-03-06T13:21:16.533Z,97280.18
2019-03-06T13:23:45.116Z,97280.89
2019-03-06T13:26:13.308Z,97280.80
2019-03-06T13:28:41.785Z,97278.13
2019-03-06T13:31:10.133Z,97277.23
2019-03-06T13:33:46.578Z,97273.69
2019-03-06T13:36:14.909Z,97271.50
2019-03-06T13:38:43.326Z,97267.00
2019-03-06T13:41:11.365Z,97256.28
2019-03-06T13:43:39.337Z,97267.48
2019-03-06T13:46:07.475Z,97263.77
2019-03-06T13:48:36.246Z,97257.14
2019-03-06T13:51:04.443Z,97254.94
2019-03-06T13:53:33.491Z,97253.38
2019-03-06T13:56:01.360Z,97246.74
2019-03-06T13:58:30.161Z,97249.42
2019-03-06T14:00:57.947Z,97256.69
2019-03-06T14:03:26.764Z,97252.09
2019-03-06T14:05:56.619Z,97249.73
2019-03-06T14:08:24.692Z,97250.70
2019-03-06T14:10:52.384Z,97244.00
2019-03-06T14:13:20.663Z,97236.28
2019-03-06T14:15:53.920Z,97238.16
2019-03-06T14:18:19.421Z,97238.16
2019-03-06T14:20:47.109Z,97234.37
2019-03-06T14:23:14.781Z,97239.19
2019-03-06T14:25:43.193Z,97234.63
2019-03-06T14:28:12.356Z,97237.30
2019-03-06T14:30:40.706Z,97229.02
2019-03-06T14:33:08.663Z,97225.25
2019-03-06T14:35:36.445Z,97223.66
2019-03-06T14:38:06.869Z,97221.55
2019-03-06T14:40:34.869Z,97218.07
2019-03-06T14:43:04.057Z,97216.95
2019-03-06T14:45:32.816Z,97212.39
2019-03-06T14:48:00.938Z,97213.20
2019-03-06T14:50:28.627Z,97208.92
2019-03-06T14:52:56.595Z,97205.48
2019-03-06T14:55:24.314Z,97207.90
2019-03-06T14:57:52.106Z,97189.24
2019-03-06T15:00:19.908Z,97192.23
2019-03-06T15:02:47.683Z,97190.99
2019-03-06T15:05:15.487Z,97190.20
2019-03-06T15:07:43.336Z,97186.17
2019-03-06T15:10:12.512Z,97183.59
2019-03-06T15:12:40.649Z,97183.91
2019-03-06T15:15:11.556Z,97180.69
2019-03-06T15:17:39.818Z,97177.44
2019-03-06T15:20:11.664Z,97169.41
2019-03-06T15:22:40.485Z,97175.02
2019-03-06T15:25:12.781Z,97171.31
2019-03-06T15:27:40.603Z,97177.76
2019-03-06T15:30:10.421Z,97171.95
2019-03-06T15:32:38.625Z,97164.46
2019-03-06T15:35:07.517Z,97163.13
2019-03-06T15:37:36.939Z,97163.19
2019-03-06T15:40:08.494Z,97166.50
2019-03-06T15:42:36.377Z,97163.12
2019-03-06T15:45:05.614Z,97165.56
2019-03-06T15:47:34.047Z,97154.63
2019-03-06T15:50:02.093Z,97157.31
2019-03-06T15:52:30.653Z,97158.71
2019-03-06T15:54:59.422Z,97154.70
2019-03-06T15:57:27.444Z,97147.78
2019-03-06T15:59:55.184Z,97148.32
2019-03-06T16:02:24.041Z,97139.84
2019-03-06T16:04:51.790Z,97138.25
2019-03-06T16:07:20.477Z,97134.00
2019-03-06T16:09:48.380Z,97134.00
2019-03-06T16:12:16.339Z,97129.77
2019-03-06T16:14:48.177Z,97130.08
2019-03-06T16:17:16.825Z,97133.08
2019-03-06T16:19:44.703Z,97130.48
2019-03-06T16:22:12.918Z,97124.11
2019-03-06T16:24:40.785Z,97124.11
2019-03-06T16:27:08.502Z,97124.75
2019-03-06T16:29:37.242Z,97117.03
2019-03-06T16:32:05.194Z,97118.91
2019-03-06T16:34:33.772Z,97112.00
2019-03-06T16:37:01.855Z,97111.77
2019-03-06T16:39:29.659Z,97125.22
2019-03-06T16:41:57.690Z,97118.63
2019-03-06T16:44:25.869Z,97124.45
2019-03-06T16:46:53.775Z,97117.59
2019-03-06T16:49:21.874Z,97115.46
2019-03-06T16:51:49.689Z,97115.23
2019-03-06T16:54:18.316Z,97112.42
2019-03-06T16:56:46.030Z,97114.30
2019-03-06T16:59:14.170Z,97111.72
2019-03-06T17:01:42.217Z,97105.09
2019-03-06T17:04:09.945Z,97100.62
2019-03-06T17:06:38.418Z,97100.62
2019-03-06T17:09:06.599Z,97097.25
2019-03-06T17:11:34.422Z,97090.65
2019-03-06T17:14:02.451Z,97088.03
2019-03-06T17:16:32.673Z,97095.04
2019-03-06T17:19:00.498Z,97094.27
2019-03-06T17:21:28.933Z,97090.57
2019-03-06T17:23:57.498Z,97092.55
2019-03-06T17:26:25.239Z,97089.07
2019-03-06T17:28:53.159Z,97089.92
2019-03-06T17:31:21.055Z,97091.27
2019-03-06T17:33:49.165Z,97096.67
2019-03-06T17:36:16.940Z,97088.96
2019-03-06T17:38:44.808Z,97089.53
2019-03-06T17:41:12.633Z,97091.19
2019-03-06T17:43:41.102Z,97102.73
2019-03-06T17:46:09.428Z,97102.52
2019-03-06T17:48:37.100Z,97101.27
2019-03-06T17:51:05.267Z,97098.02
2019-03-06T17:53:33.256Z,97084.19
2019-03-06T17:56:02.722Z,97094.89
2019-03-06T17:58:30.929Z,97095.97
2019-03-06T18:01:08.261Z,97097.56
2019-03-06T18:03:51.668Z,97090.94
2019-03-06T18:06:19.722Z,97076.71
2019-03-06T18:08:47.415Z,97070.88
2019-03-06T18:11:15.395Z,97070.34
2019-03-06T18:13:43.202Z,97060.44
2019-03-06T18:16:11.238Z,97051.08
2019-03-06T18:18:39.520Z,97050.50
2019-03-06T18:21:07.571Z,97047.83
2019-03-06T18:23:35.375Z,97028.34
2019-03-06T18:26:03.028Z,97011.05
2019-03-06T18:28:30.793Z,97014.72
2019-03-06T18:30:59.793Z,97012.39
2019-03-06T18:33:27.570Z,97007.58
2019-03-06T18:35:55.272Z,97001.44
2019-03-06T18:38:23.062Z,96994.75
2019-03-06T18:40:51.092Z,96991.85
2019-03-06T18:43:19.037Z,96990.30
2019-03-06T18:45:47.392Z,96986.28
2019-03-06T18:48:15.035Z,96982.49
2019-03-06T18:50:42.833Z,96994.30
2019-03-06T18:53:11.863Z,96992.48
2019-03-06T18:55:40.331Z,96996.72
2019-03-06T18:58:08.535Z,96993.83
2019-03-06T19:00:37.362Z,96999.17
2019-03-06T19:03:05.001Z,96990.44
2019-03-06T19:05:32.634Z,96992.80
2019-03-06T19:08:00.946Z,96982.64
2019-03-06T19:10:29.051Z,96983.98
2019-03-06T19:12:56.866Z,96975.73
2019-03-06T19:15:25.138Z,96967.48
2019-03-06T19:17:53.413Z,96970.16
2019-03-06T19:20:21.135Z,96958.90
2019-03-06T19:22:49.113Z,96963.22
2019-03-06T19:25:17.522Z,96961.13
2019-03-06T19:27:45.787Z,96967.01
2019-03-06T19:30:18.546Z,96964.11
2019-03-06T19:32:46.642Z,96963.57
2019-03-06T19:35:15.904Z,96965.45
2019-03-06T19:37:44.296Z,96964.11
2019-03-06T19:40:13.683Z,96960.42
2019-03-06T19:42:42.977Z,96955.39
2019-03-06T19:45:13.106Z,96962.07
2019-03-06T19:47:41.092Z,96949.81
2019-03-06T19:50:12.518Z,96938.80
2019-03-06T19:52:40.137Z,96903.52
2019-03-06T19:55:11.169Z,96927.09
2019-03-06T19:58:04.902Z,96928.87
2019-03-06T20:00:32.649Z,96933.52
2019-03-06T20:03:01.322Z,96919.70
2019-03-06T20:05:31.864Z,96924.57
2019-03-06T20:08:02.508Z,96927.25
2019-03-06T20:10:30.834Z,96921.13
2019-03-06T20:13:01.479Z,96920.56
2019-03-06T20:15:29.762Z,96921.90
2019-03-06T20:17:58.867Z,96910.75
2019-03-06T20:20:27.636Z,96906.75
2019-03-06T20:22:55.986Z,96903.81
2019-03-06T20:25:23.868Z,96890.45
2019-03-06T20:27:53.397Z,96902.73
2019-03-06T20:30:22.159Z,96898.25
2019-03-06T20:32:50.503Z,96910.28
2019-03-06T20:35:20.668Z,96893.22
2019-03-06T20:37:49.821Z,96899.11
2019-03-06T20:40:17.778Z,96895.67
2019-03-06T20:42:47.209Z,96896.69
2019-03-06T20:45:15.838Z,96896.44
2019-03-06T20:47:45.265Z,96913.58
2019-03-06T20:50:13.452Z,96896.75
2019-03-06T20:52:41.850Z,96902.58
2019-03-06T20:55:10.106Z,96872.69
2019-03-06T20:57:38.680Z,96880.48
2019-03-06T21:00:09.758Z,96881.83
2019-03-06T21:02:38.825Z,96885.92
2019-03-06T21:05:07.153Z,96882.14
2019-03-06T21:07:44.976Z,96895.51
2019-03-06T21:10:06.339Z,96889.36
2019-03-06T21:12:34.843Z,96880.80
2019-03-06T21:15:02.971Z,96885.92
2019-03-06T21:17:31.993Z,96897.95
2019-03-06T21:20:00.633Z,96903.08
2019-03-06T21:22:28.439Z,96897.25
2019-03-06T21:24:57.117Z,96905.05
2019-03-06T21:27:25.345Z,96899.45
2019-03-06T21:29:54.053Z,96899.45
2019-03-06T21:32:21.886Z,96897.88
2019-03-06T21:34:51.733Z,96893.02
2019-03-06T21:37:20.245Z,96890.09
2019-03-06T21:39:48.227Z,96885.86
2019-03-06T21:42:16.037Z,96869.50
2019-03-06T21:44:44.638Z,96865.59
2019-03-06T21:47:12.720Z,96884.30
2019-03-06T21:49:41.026Z,96885.95
2019-03-06T21:52:09.747Z,96874.46
2019-03-06T21:54:37.698Z,96870.23
2019-03-06T21:57:05.996Z,96866.00
2019-03-06T21:59:34.886Z,96857.41
2019-03-06T22:02:02.777Z,96849.48
2019-03-06T22:04:30.532Z,96837.23
2019-03-06T22:06:58.893Z,96836.98
2019-03-06T22:09:29.001Z,96841.78
2019-03-06T22:11:56.833Z,96836.66
2019-03-06T22:14:25.250Z,96833.77
2019-03-06T22:16:53.449Z,96826.30
2019-03-06T22:19:21.138Z,96818.05
2019-03-06T22:21:49.132Z,96820.73
2019-03-06T22:24:17.292Z,96822.92
2019-03-06T22:26:45.086Z,96825.59
2019-03-06T22:29:13.035Z,96830.40
2019-03-06T22:31:41.528Z,96831.80
2019-03-06T22:34:09.809Z,96834.47
2019-03-06T22:36:37.498Z,96841.14
2019-03-06T22:39:06.414Z,96828.87
2019-03-06T22:41:34.562Z,96835.33
2019-03-06T22:44:02.286Z,96841.55
2019-03-06T22:46:29.930Z,96847.13
2019-03-06T22:48:58.674Z,96862.05
2019-03-06T22:51:26.530Z,96860.26
2019-03-06T22:53:54.985Z,96858.44
2019-03-06T22:56:22.673Z,96852.63
2019-03-06T22:58:50.691Z,96847.53
2019-03-06T23:01:23.735Z,96846.52
2019-03-06T23:03:51.548Z,96835.83
2019-03-06T23:06:19.953Z,96830.00
2019-03-06T23:08:47.821Z,96823.42
2019-03-06T23:11:15.901Z,96821.86
2019-03-06T23:13:43.691Z,96813.50
2019-03-06T23:16:12.101Z,96815.41
2019-03-06T23:18:40.079Z,96813.27
2019-03-06T23:21:07.642Z,96804.49
2019-03-06T23:23:36.117Z,96803.16
2019-03-06T23:26:03.830Z,96799.69
2019-03-06T23:28:31.729Z,96798.98
2019-03-06T23:31:00.511Z,96793.96
2019-03-06T23:33:28.484Z,96790.18
2019-03-06T23:35:56.547Z,96789.48
2019-03-06T23:38:24.230Z,96775.67
2019-03-06T23:40:52.352Z,96777.10
2019-03-06T23:43:20.150Z,96780.54
2019-03-06T23:45:47.941Z,96788.55
2019-03-06T23:48:17.305Z,96784.86
2019-03-06T23:50:45.424Z,96784.41
2019-03-06T23:53:14.242Z,96779.61
2019-03-06T23:55:42.033Z,96784.16
2019-03-06T23:58:09.940Z,96786.61
